Time;durP1;ratioP1;P1;durP2;ratioP2;P2;SDS_P1;SDS_P2;PMS_P1;PMS_P2;Temp;Humidity;BMP_temperature;BMP_pressure;BME280_temperature;BME280_humidity;BME280_pressure;Samples;Min_cycle;Max_cycle;Signal;HPM_P1;HPM_P2
2021/07/13 00:00:21;;;;;;;13.60;8.00;;;;;;;23.75;66.07;99764.84;4878734;29;20051;-51
2021/07/13 00:02:47;;;;;;;19.58;9.23;;;;;;;23.78;65.98;99774.34;4874507;29;20061;-53
2021/07/13 00:05:17;;;;;;;14.75;8.23;;;;;;;23.77;66.19;99773.50;4866228;29;20440;-50
2021/07/13 00:07:44;;;;;;;14.48;8.05;;;;;;;23.77;64.46;99768.19;4878121;29;20215;-52
2021/07/13 00:10:12;;;;;;;15.25;8.88;;;;;;;23.79;64.89;99768.06;4875336;29;20044;-53
2021/07/13 00:12:38;;;;;;;16.05;7.70;;;;;;;23.80;65.11;99765.28;4849801;29;20045;-48
2021/07/13 00:15:10;;;;;;;12.27;7.78;;;;;;;23.85;63.50;99760.41;4878999;29;20063;-51
2021/07/13 00:17:35;;;;;;;17.80;8.05;;;;;;;23.92;62.92;99766.81;4878592;29;20518;-53
2021/07/13 00:20:03;;;;;;;16.25;7.50;;;;;;;23.92;64.10;99761.50;4878760;29;20131;-57
2021/07/13 00:22:28;;;;;;;18.33;8.65;;;;;;;23.93;64.90;99759.69;4876522;29;20408;-53
2021/07/13 00:24:54;;;;;;;17.27;8.60;;;;;;;23.90;64.12;99759.97;4877991;29;20045;-53
2021/07/13 00:27:20;;;;;;;15.27;8.93;;;;;;;23.86;63.73;99756.78;4878645;29;20532;-53
2021/07/13 00:29:45;;;;;;;22.73;9.88;;;;;;;23.85;63.93;99759.56;4878521;29;20049;-54
2021/07/13 00:32:11;;;;;;;20.75;9.10;;;;;;;23.83;63.98;99759.69;4878286;29;20044;-53
2021/07/13 00:34:36;;;;;;;17.63;9.52;;;;;;;23.85;63.45;99764.88;4877997;29;20077;-53
2021/07/13 00:37:02;;;;;;;16.73;8.77;;;;;;;23.84;64.28;99771.16;4876419;29;20063;-51
2021/07/13 00:39:28;;;;;;;20.38;9.20;;;;;;;23.83;63.74;99766.81;4870645;29;20037;-51
2021/07/13 00:41:53;;;;;;;14.90;9.10;;;;;;;23.82;64.52;99763.31;4877009;29;20531;-50
2021/07/13 00:44:20;;;;;;;17.45;7.72;;;;;;;23.79;65.10;99760.94;4878130;29;20041;-52
2021/07/13 00:46:48;;;;;;;14.85;8.02;;;;;;;23.79;65.57;99776.03;4877402;29;20255;-52
2021/07/13 00:49:16;;;;;;;15.40;8.57;;;;;;;23.76;65.60;99768.34;4878361;29;20047;-54
2021/07/13 00:51:42;;;;;;;12.77;8.23;;;;;;;23.74;66.02;99770.28;4878550;29;20045;-53
2021/07/13 00:54:09;;;;;;;13.32;9.23;;;;;;;23.71;66.02;99773.22;4877716;29;20041;-50
2021/07/13 00:56:40;;;;;;;20.00;8.50;;;;;;;23.68;64.82;99765.50;4873160;29;20045;-54
2021/07/13 00:59:06;;;;;;;16.95;8.93;;;;;;;23.65;64.13;99756.00;4878103;29;20053;-52
2021/07/13 01:01:33;;;;;;;17.58;10.80;;;;;;;23.71;64.59;99759.94;4874838;29;20045;-52
2021/07/13 01:04:01;;;;;;;18.42;10.32;;;;;;;23.72;65.06;99778.34;4869032;29;20057;-49
2021/07/13 01:07:01;;;;;;;20.90;9.75;;;;;;;23.71;64.22;99768.72;4855505;29;20485;-49
2021/07/13 01:09:40;;;;;;;22.58;10.55;;;;;;;23.75;64.07;99782.56;4854349;29;20056;-51
2021/07/13 01:12:35;;;;;;;25.00;12.52;;;;;;;23.74;64.92;99773.78;4873775;29;20044;-49
2021/07/13 01:15:04;;;;;;;16.40;8.52;;;;;;;23.72;63.56;99783.66;4861693;29;20053;-55
2021/07/13 01:17:37;;;;;;;21.02;10.90;;;;;;;23.76;63.05;99784.25;4875938;29;20044;-53
2021/07/13 01:20:35;;;;;;;15.00;8.55;;;;;;;23.81;61.63;99787.34;4859186;29;20045;-54
2021/07/13 01:23:10;;;;;;;15.20;9.05;;;;;;;23.87;60.86;99778.81;4876987;29;20045;-54
2021/07/13 01:25:44;;;;;;;17.00;8.57;;;;;;;23.90;61.20;99792.69;4877621;29;20189;-53
2021/07/13 01:28:17;;;;;;;18.85;8.70;;;;;;;23.90;60.60;99786.53;4878091;29;20622;-53
2021/07/13 01:30:46;;;;;;;20.77;8.77;;;;;;;23.90;62.06;99784.72;4860651;29;20193;-50
2021/07/13 01:33:13;;;;;;;;;;;;;;;23.88;61.87;99781.34;4860778;29;20124;-51
2021/07/13 01:35:48;;;;;;;17.25;8.07;;;;;;;23.92;60.84;99784.56;4877457;29;19931;-49
2021/07/13 01:38:14;;;;;;;13.85;8.48;;;;;;;23.91;61.23;99783.75;4871729;29;20080;-52
2021/07/13 01:40:47;;;;;;;11.90;7.60;;;;;;;23.92;60.24;99776.59;4859696;29;20037;-53
2021/07/13 01:43:13;;;;;;;17.48;7.95;;;;;;;23.96;61.04;99778.88;4859736;29;20143;-52
2021/07/13 01:45:42;;;;;;;17.92;8.35;;;;;;;23.98;60.54;99773.41;4877017;29;20116;-50
2021/07/13 01:48:11;;;;;;;16.17;7.78;;;;;;;23.94;61.53;99772.84;4859441;29;20153;-52
2021/07/13 01:50:40;;;;;;;18.95;7.80;;;;;;;23.93;61.88;99773.81;4861169;29;20068;-53
2021/07/13 01:53:06;;;;;;;10.63;7.28;;;;;;;23.90;61.77;99765.28;4859591;29;20041;-50
2021/07/13 01:55:33;;;;;;;11.32;7.80;;;;;;;23.87;62.19;99771.69;4854962;29;20045;-53
2021/07/13 01:58:00;;;;;;;12.77;7.30;;;;;;;23.84;61.36;99774.66;4862439;29;20051;-54
2021/07/13 02:00:26;;;;;;;13.88;8.10;;;;;;;23.83;61.55;99780.06;4846350;29;20041;-54
2021/07/13 02:02:52;;;;;;;15.77;7.80;;;;;;;23.80;62.60;99775.06;4872255;29;20431;-50
2021/07/13 02:05:19;;;;;;;16.02;7.85;;;;;;;23.78;63.14;99772.53;4852371;29;20504;-50
2021/07/13 02:07:49;;;;;;;16.25;7.93;;;;;;;23.75;63.12;99769.31;4842721;29;20535;-53
2021/07/13 02:10:17;;;;;;;15.20;7.70;;;;;;;23.76;63.47;99769.16;4849091;29;20140;-49
2021/07/13 02:12:43;;;;;;;17.67;8.02;;;;;;;23.76;64.12;99773.66;4875026;29;20497;-50
2021/07/13 02:15:09;;;;;;;14.43;8.05;;;;;;;23.75;63.42;99775.47;4869583;29;20093;-52
2021/07/13 02:17:35;;;;;;;10.32;7.30;;;;;;;23.76;62.56;99777.09;4876543;29;20053;-52
2021/07/13 02:20:03;;;;;;;11.90;6.50;;;;;;;23.82;60.69;99768.63;4873276;29;20052;-49
2021/07/13 02:22:29;;;;;;;13.65;7.55;;;;;;;23.87;61.32;99776.16;4876188;29;20393;-49
2021/07/13 02:24:55;;;;;;;14.43;7.90;;;;;;;23.90;60.09;99776.75;4876918;29;20048;-52
2021/07/13 02:27:21;;;;;;;12.48;6.65;;;;;;;23.98;58.34;99784.03;4876419;29;20449;-49
2021/07/13 02:29:55;;;;;;;11.82;6.85;;;;;;;24.02;58.52;99777.50;4876635;29;20393;-50
2021/07/13 02:32:27;;;;;;;14.70;6.90;;;;;;;24.06;58.98;99784.22;4859032;29;20580;-49
2021/07/13 02:34:54;;;;;;;9.55;6.72;;;;;;;24.07;58.25;99772.63;4860105;29;20041;-52
2021/07/13 02:37:21;;;;;;;10.23;6.57;;;;;;;24.17;58.32;99783.28;4874854;29;20481;-48
2021/07/13 02:39:47;;;;;;;12.30;7.05;;;;;;;24.21;56.33;99782.03;4859450;29;20139;-50
2021/07/13 02:42:16;;;;;;;15.90;6.82;;;;;;;24.28;56.14;99775.22;4859956;29;20049;-52
2021/07/13 02:44:42;;;;;;;10.27;6.38;;;;;;;24.31;56.13;99785.56;4876732;29;20037;-49
2021/07/13 02:47:11;;;;;;;15.70;6.40;;;;;;;24.35;55.13;99774.50;4858562;29;20081;-52
2021/07/13 02:49:44;;;;;;;9.60;5.82;;;;;;;24.38;54.70;99781.38;4846326;29;20049;-50
2021/07/13 02:52:12;;;;;;;8.85;5.90;;;;;;;24.41;54.75;99778.44;4860350;29;20053;-51
2021/07/13 02:54:38;;;;;;;;;;;;;;;24.41;54.69;99781.94;4875892;29;20389;-51
2021/07/13 02:57:04;;;;;;;10.85;5.30;;;;;;;24.41;54.23;99775.78;4859299;29;19930;-49
2021/07/13 02:59:32;;;;;;;11.93;5.68;;;;;;;24.45;53.94;99777.19;4875611;29;20052;-59
2021/07/13 03:01:59;;;;;;;10.82;7.43;;;;;;;24.51;54.20;99781.94;4878399;29;20052;-52
2021/07/13 03:04:24;;;;;;;12.63;5.95;;;;;;;24.55;53.71;99783.34;4861303;29;20198;-51
2021/07/13 03:06:52;;;;;;;12.65;5.93;;;;;;;24.58;53.42;99787.56;4862938;29;20042;-49
2021/07/13 03:09:18;;;;;;;20.60;6.30;;;;;;;24.61;53.60;99787.25;4877201;29;20037;-48
2021/07/13 03:11:44;;;;;;;13.90;5.88;;;;;;;24.66;53.54;99788.53;4829217;29;20042;-48
2021/07/13 03:14:12;;;;;;;18.48;6.80;;;;;;;24.66;53.98;99782.34;4876685;29;20048;-50
2021/07/13 03:16:39;;;;;;;9.90;5.68;;;;;;;24.73;53.12;99786.16;4879119;29;20072;-49
2021/07/13 03:19:05;;;;;;;10.63;5.43;;;;;;;24.81;52.22;99787.13;4879902;29;20077;-50
2021/07/13 03:21:34;;;;;;;10.05;5.55;;;;;;;24.86;52.36;99786.72;4857904;29;20505;-49
2021/07/13 03:24:01;;;;;;;;;;;;;;;24.89;51.62;99789.97;4845401;29;20132;-49
2021/07/13 03:26:29;;;;;;;7.65;4.80;;;;;;;24.93;51.49;99784.34;4844975;29;19924;-50
2021/07/13 03:28:59;;;;;;;11.07;5.90;;;;;;;24.95;51.63;99791.22;4845126;29;20540;-51
2021/07/13 03:31:26;;;;;;;9.77;5.32;;;;;;;24.96;51.20;99790.25;4844476;29;20065;-52
2021/07/13 03:33:53;;;;;;;11.00;5.60;;;;;;;24.99;50.91;99789.09;4844774;29;20474;-50
2021/07/13 03:36:19;;;;;;;13.38;5.68;;;;;;;24.97;51.30;99786.59;4861300;29;20043;-49
2021/07/13 03:38:45;;;;;;;10.82;5.03;;;;;;;25.00;51.26;99786.31;4871867;29;20140;-49
2021/07/13 03:41:11;;;;;;;9.18;5.40;;;;;;;25.00;51.20;99788.97;4878978;29;20049;-52
2021/07/13 03:43:37;;;;;;;10.15;5.20;;;;;;;25.04;51.60;99797.50;4877582;29;20061;-50
2021/07/13 03:46:05;;;;;;;11.23;5.30;;;;;;;25.05;51.18;99793.88;4878370;29;20041;-49
2021/07/13 03:48:31;;;;;;;8.27;5.03;;;;;;;25.08;50.71;99791.75;4879445;29;20181;-51
2021/07/13 03:50:56;;;;;;;5.82;4.72;;;;;;;25.09;50.82;99788.13;4861914;29;20140;-53
2021/07/13 03:53:22;;;;;;;9.68;6.07;;;;;;;25.09;51.28;99792.59;4878682;29;20033;-53
2021/07/13 03:55:48;;;;;;;9.10;4.90;;;;;;;25.13;50.99;99794.81;4879535;29;20036;-52
2021/07/13 03:58:13;;;;;;;9.88;4.80;;;;;;;25.16;50.83;99788.41;4877149;29;20049;-52
2021/07/13 04:00:39;;;;;;;10.43;4.78;;;;;;;25.18;50.94;99786.41;4878927;29;20532;-50
2021/07/13 04:03:05;;;;;;;10.25;5.15;;;;;;;25.24;51.09;99793.81;4876678;29;20056;-51
2021/07/13 04:05:30;;;;;;;7.78;5.05;;;;;;;25.26;51.36;99790.06;4876315;29;20047;-49
2021/07/13 04:07:56;;;;;;;6.35;4.38;;;;;;;25.28;50.39;99795.22;4878164;29;20496;-54
2021/07/13 04:10:22;;;;;;;8.02;4.55;;;;;;;25.29;50.93;99797.75;4878412;29;20084;-49
2021/07/13 04:12:48;;;;;;;9.48;4.53;;;;;;;25.33;50.66;99789.47;4879582;29;20078;-51
2021/07/13 04:15:13;;;;;;;6.88;5.10;;;;;;;25.36;50.66;99791.84;4878667;29;20060;-49
2021/07/13 04:17:40;;;;;;;14.57;4.90;;;;;;;25.41;50.92;99792.25;4876258;29;20049;-54
2021/07/13 04:20:07;;;;;;;7.68;4.85;;;;;;;25.43;50.95;99791.13;4877759;29;20049;-51
2021/07/13 04:22:33;;;;;;;6.43;4.55;;;;;;;25.46;50.40;99782.00;4879414;29;20045;-51
2021/07/13 04:24:59;;;;;;;12.88;5.05;;;;;;;25.54;50.65;99779.47;4877875;29;20045;-51
2021/07/13 04:27:26;;;;;;;12.18;5.50;;;;;;;25.58;50.43;99781.72;4877580;29;20749;-52
2021/07/13 04:29:52;;;;;;;9.18;4.70;;;;;;;25.60;50.34;99784.22;4867704;29;20060;-54
2021/07/13 04:32:18;;;;;;;16.33;4.93;;;;;;;25.67;49.72;99785.31;4877346;29;20052;-52
2021/07/13 04:34:44;;;;;;;9.80;5.00;;;;;;;25.70;50.35;99785.88;4877254;29;20037;-50
2021/07/13 04:37:09;;;;;;;12.70;4.97;;;;;;;25.78;49.55;99789.63;4877218;29;20416;-53
2021/07/13 04:39:35;;;;;;;6.47;3.90;;;;;;;25.82;49.49;99777.69;4877230;29;20049;-51
2021/07/13 04:42:00;;;;;;;6.95;4.32;;;;;;;25.83;49.70;99779.38;4877750;29;20181;-51
2021/07/13 04:44:26;;;;;;;12.52;7.30;;;;;;;25.88;50.00;99780.59;4878537;29;20079;-52
2021/07/13 04:46:53;;;;;;;9.73;5.30;;;;;;;25.91;49.71;99785.63;4878683;29;20550;-50
2021/07/13 04:49:19;;;;;;;11.90;5.40;;;;;;;25.94;49.62;99785.34;4876565;29;20049;-51
2021/07/13 04:51:44;;;;;;;11.07;4.97;;;;;;;25.98;50.28;99776.06;4874320;29;20127;-50
2021/07/13 04:54:10;;;;;;;8.90;5.40;;;;;;;26.01;49.92;99777.63;4877072;29;20044;-51
2021/07/13 04:56:36;;;;;;;10.80;5.15;;;;;;;26.07;49.06;99782.31;4878675;29;20037;-49
2021/07/13 04:59:01;;;;;;;11.65;5.30;;;;;;;26.08;50.12;99776.84;4869887;29;20543;-50
2021/07/13 05:01:27;;;;;;;7.45;4.88;;;;;;;26.13;50.25;99779.06;4875111;29;20048;-51
2021/07/13 05:03:54;;;;;;;8.50;5.40;;;;;;;26.21;49.72;99776.50;4869054;29;20642;-51
2021/07/13 05:06:19;;;;;;;7.63;4.75;;;;;;;26.26;49.19;99778.75;4876438;29;20049;-49
2021/07/13 05:08:45;;;;;;;8.15;4.93;;;;;;;26.30;49.43;99777.44;4873701;29;20473;-51
2021/07/13 05:11:11;;;;;;;15.98;5.18;;;;;;;26.38;49.14;99774.88;4858817;29;20056;-50
2021/07/13 05:13:37;;;;;;;10.05;4.88;;;;;;;26.42;48.93;99763.75;4877660;29;20509;-49
2021/07/13 05:16:03;;;;;;;10.57;4.35;;;;;;;26.47;48.18;99766.81;4877781;29;20088;-49
2021/07/13 05:18:30;;;;;;;7.10;4.55;;;;;;;26.54;47.77;99756.34;4874920;29;20063;-50
2021/07/13 05:21:01;;;;;;;8.82;4.60;;;;;;;26.61;48.30;99761.94;4877850;29;20045;-52
2021/07/13 05:23:50;;;;;;;8.02;5.20;;;;;;;26.70;47.17;99769.84;5138254;23;20589;-48
2021/07/13 05:26:16;;;;;;;7.95;5.00;;;;;;;26.77;46.91;99762.06;4887989;29;20057;-51
2021/07/13 05:28:42;;;;;;;11.23;5.38;;;;;;;26.81;47.19;99761.59;4884328;29;20043;-49
2021/07/13 05:31:08;;;;;;;15.63;5.20;;;;;;;26.93;47.26;99767.56;4894045;29;20079;-50
2021/07/13 05:33:33;;;;;;;9.07;5.28;;;;;;;27.03;47.54;99768.31;4888751;29;20063;-50
2021/07/13 05:35:59;;;;;;;11.05;5.20;;;;;;;27.15;48.02;99780.44;4877453;29;20040;-49
2021/07/13 05:38:25;;;;;;;8.18;4.90;;;;;;;27.24;47.13;99767.97;4894893;29;20048;-52
2021/07/13 05:40:50;;;;;;;8.68;5.10;;;;;;;27.31;46.79;99780.53;4890908;29;20040;-53
2021/07/13 05:43:17;;;;;;;11.55;5.72;;;;;;;27.39;46.59;99780.56;4894801;29;20103;-49
2021/07/13 05:45:44;;;;;;;13.20;6.78;;;;;;;27.47;46.60;99782.47;4867169;29;20053;-53
2021/07/13 05:48:10;;;;;;;9.13;5.23;;;;;;;27.55;46.19;99779.88;4867348;29;20808;-54
2021/07/13 05:50:36;;;;;;;6.88;4.72;;;;;;;27.63;45.38;99776.41;4873924;29;20296;-52
2021/07/13 05:53:03;;;;;;;11.60;4.75;;;;;;;27.71;46.03;99776.44;4896074;29;20040;-50
2021/07/13 05:55:29;;;;;;;8.57;4.55;;;;;;;27.84;46.09;99778.69;4895037;29;20515;-53
2021/07/13 05:57:55;;;;;;;9.07;4.93;;;;;;;27.95;43.50;99778.41;4884847;29;20051;-52
2021/07/13 06:00:21;;;;;;;9.43;4.38;;;;;;;28.01;43.18;99775.91;4894727;29;20135;-49
2021/07/13 06:02:47;;;;;;;6.63;4.38;;;;;;;28.07;43.32;99769.91;4895923;29;20040;-51
2021/07/13 06:05:13;;;;;;;7.35;4.82;;;;;;;28.20;44.18;99770.31;4896190;29;20075;-52
2021/07/13 06:07:46;;;;;;;9.48;4.28;;;;;;;28.32;43.81;99770.00;4895719;29;20480;-51
2021/07/13 06:10:12;;;;;;;7.85;4.65;;;;;;;28.44;44.54;99766.84;4894865;29;20095;-49
2021/07/13 06:12:38;;;;;;;8.23;5.30;;;;;;;28.54;43.42;99764.84;4895252;29;20427;-49
2021/07/13 06:15:05;;;;;;;9.00;4.85;;;;;;;28.65;44.37;99763.69;4895967;29;20189;-53
2021/07/13 06:17:31;;;;;;;9.15;5.13;;;;;;;28.74;44.96;99761.88;4893631;29;20067;-52
2021/07/13 06:19:56;;;;;;;11.90;4.90;;;;;;;28.87;43.70;99773.78;4895173;29;20504;-53
2021/07/13 06:22:22;;;;;;;10.07;5.10;;;;;;;28.93;43.06;99764.25;4894741;29;20049;-51
2021/07/13 06:24:48;;;;;;;8.27;4.40;;;;;;;29.09;42.77;99768.75;4890391;29;20128;-53
2021/07/13 06:27:13;;;;;;;8.07;4.30;;;;;;;29.21;41.03;99762.00;4893738;29;20103;-53
2021/07/13 06:29:39;;;;;;;10.18;5.15;;;;;;;29.32;42.04;99762.53;4895130;29;20049;-50
2021/07/13 06:32:06;;;;;;;11.70;5.32;;;;;;;29.52;42.60;99771.03;4867285;29;20128;-49
2021/07/13 06:34:32;;;;;;;7.30;4.38;;;;;;;29.72;39.94;99777.69;4879457;29;20057;-53
2021/07/13 06:36:58;;;;;;;9.15;4.78;;;;;;;29.92;39.58;99771.94;4894005;29;20049;-51
2021/07/13 06:39:23;;;;;;;11.75;4.40;;;;;;;30.08;38.25;99774.53;4899259;29;20435;-50
2021/07/13 06:41:49;;;;;;;8.00;4.65;;;;;;;30.38;37.39;99783.59;4877582;29;20068;-53
2021/07/13 06:44:15;;;;;;;13.88;5.15;;;;;;;30.88;38.05;99775.84;4898380;29;20049;-50
2021/07/13 06:46:41;;;;;;;4.43;4.03;;;;;;;31.50;35.98;99776.47;4876430;29;20049;-52
2021/07/13 06:49:06;;;;;;;7.15;4.20;;;;;;;32.21;34.00;99777.66;4869852;29;20037;-50
2021/07/13 06:51:32;;;;;;;9.30;6.50;;;;;;;32.93;31.94;99782.13;4864112;29;20142;-52
2021/07/13 06:53:58;;;;;;;5.35;3.97;;;;;;;33.73;31.10;99782.56;4861876;29;20584;-51
2021/07/13 06:56:23;;;;;;;4.10;3.70;;;;;;;34.67;29.10;99780.00;4875071;29;20053;-50
2021/07/13 06:58:49;;;;;;;10.43;4.30;;;;;;;35.68;28.07;99779.59;4874559;29;20051;-52
2021/07/13 07:01:15;;;;;;;4.63;4.07;;;;;;;36.53;26.48;99775.66;4860207;29;20049;-50
2021/07/13 07:03:41;;;;;;;13.90;8.32;;;;;;;37.52;26.29;99774.91;4880129;29;20048;-50
2021/07/13 07:06:07;;;;;;;6.97;4.72;;;;;;;38.33;24.34;99768.31;4884907;29;20048;-53
2021/07/13 07:08:32;;;;;;;4.38;3.75;;;;;;;38.65;23.55;99780.59;4871113;29;20060;-52
2021/07/13 07:10:58;;;;;;;6.25;4.20;;;;;;;39.30;22.85;99780.59;4854344;29;20049;-51
2021/07/13 07:13:24;;;;;;;7.25;4.50;;;;;;;40.18;21.80;99775.75;4871383;29;20115;-51
2021/07/13 07:15:49;;;;;;;7.78;4.88;;;;;;;40.75;21.42;99774.91;4875520;29;20096;-50
2021/07/13 07:18:15;;;;;;;5.97;4.50;;;;;;;40.78;20.89;99782.59;4876810;29;20045;-53
2021/07/13 07:20:41;;;;;;;5.75;4.43;;;;;;;41.24;20.24;99779.56;4872265;29;20040;-50
2021/07/13 07:23:07;;;;;;;6.95;4.53;;;;;;;41.76;19.53;99777.31;4871563;29;20516;-53
2021/07/13 07:25:34;;;;;;;7.47;5.40;;;;;;;42.40;18.90;99782.19;4870253;29;20075;-53
2021/07/13 07:28:03;;;;;;;6.85;5.28;;;;;;;42.73;19.44;99778.41;4898717;29;20488;-55
2021/07/13 07:30:29;;;;;;;10.10;5.43;;;;;;;43.29;19.15;99776.97;4898458;29;20464;-55
2021/07/13 07:32:57;;;;;;;5.13;4.72;;;;;;;43.79;18.15;99769.03;4878305;29;20044;-54
2021/07/13 07:35:23;;;;;;;5.07;4.65;;;;;;;44.34;17.71;99770.34;4876949;29;20049;-55
2021/07/13 07:37:49;;;;;;;7.68;5.38;;;;;;;44.78;17.10;99767.13;4892235;29;20068;-54
2021/07/13 07:40:18;;;;;;;5.70;5.18;;;;;;;44.76;17.02;99772.88;4870572;29;20477;-53
2021/07/13 07:42:49;;;;;;;8.00;5.18;;;;;;;44.86;16.63;99770.13;4869464;29;20132;-54
2021/07/13 07:45:15;;;;;;;6.82;5.40;;;;;;;44.83;16.43;99754.22;4857221;29;20142;-53
2021/07/13 07:47:41;;;;;;;5.90;5.07;;;;;;;45.09;16.92;99760.53;4868759;29;20094;-54
2021/07/13 07:50:08;;;;;;;6.05;5.45;;;;;;;45.36;16.30;99757.44;4872175;29;20045;-51
2021/07/13 07:52:34;;;;;;;6.45;5.18;;;;;;;44.24;17.17;99770.28;4870664;29;20053;-54
2021/07/13 07:55:00;;;;;;;6.65;6.00;;;;;;;43.98;17.01;99769.41;4872121;29;20508;-52
2021/07/13 07:57:25;;;;;;;6.65;5.47;;;;;;;44.23;17.30;99760.44;4873895;29;20076;-53
2021/07/13 07:59:51;;;;;;;6.15;5.35;;;;;;;44.02;17.48;99756.78;4870326;29;20042;-54
2021/07/13 08:02:20;;;;;;;6.50;5.40;;;;;;;44.46;17.20;99759.13;4868382;29;20041;-52
2021/07/13 08:04:46;;;;;;;7.07;5.38;;;;;;;44.15;16.91;99753.56;4869885;29;20618;-54
2021/07/13 08:07:11;;;;;;;8.50;5.55;;;;;;;44.18;16.62;99753.00;4855523;29;20068;-54
2021/07/13 08:09:37;;;;;;;8.05;5.93;;;;;;;44.83;16.60;99753.41;4870396;29;20559;-54
2021/07/13 08:12:03;;;;;;;6.68;6.03;;;;;;;45.03;16.68;99750.63;4870320;29;20063;-54
2021/07/13 08:14:28;;;;;;;6.22;5.63;;;;;;;45.51;16.80;99747.28;4869210;29;20053;-54
2021/07/13 08:16:55;;;;;;;6.97;6.30;;;;;;;46.29;16.10;99738.38;4876200;29;20052;-55
2021/07/13 08:19:21;;;;;;;7.53;6.30;;;;;;;45.54;15.75;99738.47;4873139;29;20528;-55
2021/07/13 08:21:46;;;;;;;6.72;6.05;;;;;;;45.17;16.12;99743.50;4872514;29;20131;-58
2021/07/13 08:24:12;;;;;;;6.32;5.80;;;;;;;45.67;15.87;99727.97;4872060;29;20500;-52
2021/07/13 08:26:39;;;;;;;6.57;5.95;;;;;;;45.80;15.35;99730.94;4882692;29;20044;-54
2021/07/13 08:29:05;;;;;;;6.68;5.90;;;;;;;45.75;15.49;99738.38;4890352;29;20052;-52
2021/07/13 08:34:27;;;;;;;9.40;5.67;;;;;;;46.82;14.60;99725.59;4950900;23;20057;-53
2021/07/13 08:36:53;;;;;;;8.00;5.90;;;;;;;47.29;14.33;99730.38;4860922;29;20079;-56
2021/07/13 08:39:19;;;;;;;6.20;5.70;;;;;;;47.49;14.13;99729.31;4860407;29;20491;-53
2021/07/13 08:41:46;;;;;;;13.52;7.35;;;;;;;48.07;14.15;99735.47;4858910;29;20561;-54
2021/07/13 08:44:12;;;;;;;7.13;6.03;;;;;;;47.12;14.50;99732.75;4859924;29;20077;-56
2021/07/13 08:46:39;;;;;;;6.65;6.05;;;;;;;47.10;14.40;99733.06;4859288;29;20057;-56
2021/07/13 08:49:07;;;;;;;10.77;6.78;;;;;;;47.07;14.42;99722.59;4859223;29;20102;-57
2021/07/13 08:51:33;;;;;;;7.28;6.53;;;;;;;47.49;14.30;99726.56;4858936;29;20509;-56
2021/07/13 08:54:01;;;;;;;35.47;9.35;;;;;;;48.12;13.67;99729.88;4859328;29;20136;-56
2021/07/13 08:56:28;;;;;;;9.80;7.00;;;;;;;48.31;13.73;99714.13;4858651;29;20152;-56
2021/07/13 08:58:54;;;;;;;15.07;8.15;;;;;;;48.61;13.33;99709.28;4856343;29;20162;-56
2021/07/13 09:01:20;;;;;;;13.00;8.43;;;;;;;48.95;13.52;99714.47;4859215;29;20037;-55
2021/07/13 09:03:57;;;;;;;7.75;6.85;;;;;;;48.67;12.72;99713.59;4857009;29;20848;-57
2021/07/13 09:06:25;;;;;;;7.55;6.60;;;;;;;48.78;13.20;99715.06;4858926;29;20045;-57
2021/07/13 09:08:51;;;;;;;8.07;6.40;;;;;;;48.60;12.87;99716.72;4858922;29;20152;-56
2021/07/13 09:11:19;;;;;;;10.93;7.00;;;;;;;48.66;12.90;99709.19;4859037;29;20037;-56
2021/07/13 09:13:53;;;;;;;17.25;7.32;;;;;;;48.63;12.92;99705.06;4859326;29;20132;-57
2021/07/13 09:16:24;;;;;;;103.90;18.58;;;;;;;49.11;13.12;99708.38;4858957;29;20435;-58
2021/07/13 09:18:52;;;;;;;12.40;7.10;;;;;;;48.80;13.04;99710.06;4853571;29;20049;-56
2021/07/13 09:21:40;;;;;;;7.40;6.80;;;;;;;48.77;12.96;99707.91;4857333;29;20064;-55
2021/07/13 09:24:09;;;;;;;7.47;6.65;;;;;;;48.49;13.01;99714.44;4824560;29;20037;-56
2021/07/13 09:26:35;;;;;;;13.52;7.53;;;;;;;48.86;13.16;99705.25;4858170;29;20053;-54
2021/07/13 09:29:00;;;;;;;10.20;7.05;;;;;;;49.20;12.96;99703.75;4859219;29;20053;-55
2021/07/13 09:31:26;;;;;;;9.20;7.80;;;;;;;49.51;12.56;99703.19;4854914;29;20149;-55
2021/07/13 09:33:52;;;;;;;10.77;8.15;;;;;;;49.64;12.79;99711.44;4857966;29;20061;-56
2021/07/13 09:36:18;;;;;;;9.13;7.28;;;;;;;49.49;12.50;99706.25;4858992;29;20046;-56
2021/07/13 09:38:47;;;;;;;11.13;8.70;;;;;;;49.72;12.35;99706.31;4857894;29;20055;-54
2021/07/13 09:41:15;;;;;;;32.28;17.63;;;;;;;49.96;12.80;99710.47;4858081;29;20094;-54
2021/07/13 09:43:59;;;;;;;26.60;10.43;;;;;;;49.92;12.54;99697.59;4858443;29;20061;-54
2021/07/13 09:46:44;;;;;;;7.95;7.30;;;;;;;49.90;12.02;99711.72;4858545;29;20217;-57
2021/07/13 09:49:24;;;;;;;25.73;10.23;;;;;;;50.17;11.98;99690.66;4855298;29;20073;-53
2021/07/13 09:51:53;;;;;;;40.45;15.65;;;;;;;50.37;12.17;99702.03;4859016;29;20069;-57
2021/07/13 09:54:30;;;;;;;9.43;7.63;;;;;;;49.88;11.92;99704.88;4858516;29;20462;-56
2021/07/13 09:56:57;;;;;;;13.23;8.10;;;;;;;49.63;12.13;99698.75;4856506;29;20462;-54
2021/07/13 09:59:23;;;;;;;11.27;7.63;;;;;;;49.50;11.94;99687.72;4858066;29;20136;-55
2021/07/13 10:01:49;;;;;;;13.77;8.87;;;;;;;49.74;11.69;99693.00;4857424;29;20604;-53
2021/07/13 10:04:15;;;;;;;18.58;9.40;;;;;;;49.99;11.84;99690.47;4858191;29;20046;-54
2021/07/13 10:06:41;;;;;;;15.30;9.00;;;;;;;50.20;11.97;99688.06;4855484;29;20129;-55
2021/07/13 10:09:12;;;;;;;10.63;9.53;;;;;;;50.31;11.70;99686.69;4855431;29;20045;-54
2021/07/13 10:11:39;;;;;;;9.57;8.75;;;;;;;50.41;11.88;99678.13;4842938;29;20069;-56
2021/07/13 10:14:10;;;;;;;10.20;9.10;;;;;;;50.41;12.19;99683.66;4858486;29;20053;-53
2021/07/13 10:16:37;;;;;;;8.60;7.80;;;;;;;49.84;11.40;99679.78;4857227;29;20429;-55
2021/07/13 10:19:08;;;;;;;8.55;7.78;;;;;;;49.68;11.39;99672.94;4855789;29;20054;-54
2021/07/13 10:21:35;;;;;;;11.10;7.75;;;;;;;49.47;12.49;99675.31;4853764;29;20053;-55
2021/07/13 10:24:03;;;;;;;9.15;8.25;;;;;;;49.75;12.34;99667.84;4823985;29;20045;-55
2021/07/13 10:26:49;;;;;;;9.60;7.90;;;;;;;49.38;11.91;99682.69;4837271;29;20100;-54
2021/07/13 10:29:33;;;;;;;8.33;7.73;;;;;;;48.92;12.38;99668.13;4856681;29;20523;-54
2021/07/13 10:31:59;;;;;;;8.77;7.88;;;;;;;48.84;12.37;99668.88;4855587;29;20351;-54
2021/07/13 10:34:53;;;;;;;10.32;9.32;;;;;;;49.28;12.37;99665.50;4851956;29;20537;-54
2021/07/13 10:37:35;;;;;;;12.68;8.07;;;;;;;49.36;12.44;99671.09;4823646;29;20054;-55
2021/07/13 10:40:03;;;;;;;9.45;7.32;;;;;;;49.17;12.45;99675.94;4857226;29;20529;-56
2021/07/13 10:42:41;;;;;;;9.20;8.18;;;;;;;48.94;12.38;99672.25;4858192;29;20057;-58
2021/07/13 10:45:29;;;;;;;9.35;8.55;;;;;;;49.11;12.33;99666.13;4858084;29;20048;-53
2021/07/13 10:48:12;;;;;;;12.43;9.30;;;;;;;49.39;12.27;99667.75;4857324;29;20049;-56
2021/07/13 10:50:38;;;;;;;14.57;11.00;;;;;;;49.62;12.45;99672.22;4856963;29;20473;-56
2021/07/13 10:53:19;;;;;;;9.40;8.00;;;;;;;49.76;12.57;99663.13;4858278;29;20049;-56
2021/07/13 10:55:47;;;;;;;21.52;9.00;;;;;;;49.79;12.21;99660.53;4858160;29;20057;-55
2021/07/13 10:58:15;;;;;;;20.98;9.35;;;;;;;49.74;12.14;99660.63;4857049;29;20080;-56
2021/07/13 11:00:59;;;;;;;9.15;7.82;;;;;;;49.42;12.12;99663.56;4858237;29;20033;-55
2021/07/13 11:03:27;;;;;;;11.90;8.35;;;;;;;48.47;12.73;99656.81;4857625;29;20042;-55
2021/07/13 11:05:54;;;;;;;9.48;8.05;;;;;;;48.33;12.84;99656.72;4857653;29;20045;-54
2021/07/13 11:08:38;;;;;;;8.88;8.00;;;;;;;48.76;12.38;99654.63;4857187;29;20086;-51
2021/07/13 11:11:08;;;;;;;8.90;7.85;;;;;;;49.05;12.19;99653.50;4856824;29;20097;-54
2021/07/13 11:13:35;;;;;;;8.70;7.95;;;;;;;49.25;12.55;99646.78;4841223;29;20045;-55
2021/07/13 11:16:00;;;;;;;10.40;8.57;;;;;;;49.21;12.45;99641.88;4857308;29;20044;-54
2021/07/13 11:18:27;;;;;;;12.57;8.20;;;;;;;49.06;12.11;99647.72;4857539;29;20050;-55
2021/07/13 11:20:53;;;;;;;8.18;7.40;;;;;;;48.79;12.28;99645.72;4858455;29;20509;-56
2021/07/13 11:23:26;;;;;;;9.27;7.80;;;;;;;48.24;12.58;99639.22;4843764;29;20052;-56
2021/07/13 11:26:05;;;;;;;7.70;7.05;;;;;;;48.36;12.86;99638.78;4859129;29;20476;-55
2021/07/13 11:28:32;;;;;;;7.50;7.00;;;;;;;47.60;12.58;99642.63;4859078;29;20086;-53
2021/07/13 11:30:58;;;;;;;7.72;7.05;;;;;;;46.99;13.35;99635.16;4844141;29;20046;-54
2021/07/13 11:33:27;;;;;;;7.68;7.00;;;;;;;47.21;13.25;99634.63;4858606;29;20433;-54
2021/07/13 11:35:56;;;;;;;8.07;7.38;;;;;;;47.76;13.06;99629.50;4860748;29;20041;-57